Time;durP1;ratioP1;P1;durP2;ratioP2;P2;SDS_P1;SDS_P2;PMS_P1;PMS_P2;Temp;Humidity;BMP_temperature;BMP_pressure;BME280_temperature;BME280_humidity;BME280_pressure;Samples;Min_cycle;Max_cycle;Signal;HPM_P1;HPM_P2
2021/06/30 00:00:47;;;;;;;1.70;0.93;;;26.50;51.90;;;;;;4984418;28;20204;-68
2021/06/30 00:03:22;;;;;;;1.43;0.90;;;26.40;51.90;;;;;;4986275;28;20211;-69
2021/06/30 00:06:02;;;;;;;1.00;0.90;;;26.40;52.50;;;;;;4982059;28;20208;-68
2021/06/30 00:08:33;;;;;;;1.10;1.00;;;26.40;52.00;;;;;;4984823;28;20221;-68
2021/06/30 00:11:05;;;;;;;0.80;0.80;;;26.40;52.10;;;;;;4979860;28;20263;-68
2021/06/30 00:13:37;;;;;;;0.83;0.80;;;26.40;52.00;;;;;;4988752;28;20204;-69
2021/06/30 00:16:13;;;;;;;1.10;0.77;;;26.40;52.70;;;;;;4984589;28;20200;-69
2021/06/30 00:18:51;;;;;;;0.60;0.60;;;26.30;52.10;;;;;;4982275;28;20195;-68
2021/06/30 00:21:25;;;;;;;0.80;0.80;;;26.30;52.10;;;;;;4959298;28;20442;-69
2021/06/30 00:23:53;;;;;;;1.17;1.03;;;26.30;52.10;;;;;;4980648;28;20647;-68
2021/06/30 00:26:27;;;;;;;1.47;0.87;;;26.30;52.10;;;;;;4984103;28;20215;-68
2021/06/30 00:29:05;;;;;;;1.53;1.00;;;26.20;52.10;;;;;;4987357;28;20239;-68
2021/06/30 00:31:33;;;;;;;0.60;0.60;;;26.20;52.10;;;;;;4984740;28;20200;-68
2021/06/30 00:34:03;;;;;;;1.30;0.90;;;26.30;52.20;;;;;;4978920;28;20197;-69
2021/06/30 00:36:43;;;;;;;0.90;0.83;;;26.20;52.20;;;;;;4987124;28;20343;-68
2021/06/30 00:39:22;;;;;;;0.83;0.80;;;26.20;52.20;;;;;;4980596;28;20271;-68
2021/06/30 00:41:59;;;;;;;0.83;0.60;;;26.20;52.20;;;;;;4990129;28;20736;-68
2021/06/30 00:44:34;;;;;;;1.17;0.70;;;26.20;52.20;;;;;;4981736;28;20207;-68
2021/06/30 00:47:03;;;;;;;0.80;0.80;;;26.20;52.30;;;;;;4989793;28;20219;-68
2021/06/30 00:49:39;;;;;;;0.60;0.60;;;26.10;52.20;;;;;;4984271;28;20230;-68
2021/06/30 00:52:18;;;;;;;0.80;0.80;;;26.10;52.20;;;;;;4987176;28;20210;-68
2021/06/30 00:54:52;;;;;;;0.87;0.80;;;26.10;52.20;;;;;;4986285;28;20196;-68
2021/06/30 00:57:23;;;;;;;0.70;0.60;;;26.10;52.20;;;;;;4983185;28;20212;-68
2021/06/30 00:59:56;;;;;;;0.77;0.73;;;26.10;52.20;;;;;;4983927;28;20196;-68
2021/06/30 01:02:30;;;;;;;0.80;0.63;;;26.10;52.20;;;;;;4988345;28;20266;-69
2021/06/30 01:05:10;;;;;;;1.00;0.70;;;26.10;52.30;;;;;;4986460;28;20196;-68
2021/06/30 01:07:44;;;;;;;0.50;0.50;;;26.10;52.30;;;;;;4986453;28;20222;-68
2021/06/30 01:10:20;;;;;;;0.93;0.60;;;26.10;52.30;;;;;;4988806;28;20196;-68
2021/06/30 01:12:53;;;;;;;0.70;0.50;;;26.00;52.30;;;;;;4986387;28;20635;-68
2021/06/30 01:15:21;;;;;;;0.50;0.50;;;26.00;52.30;;;;;;4990412;28;20200;-69
2021/06/30 01:17:55;;;;;;;0.57;0.57;;;26.00;52.30;;;;;;4982216;28;20212;-68
2021/06/30 01:20:28;;;;;;;1.13;1.03;;;26.00;52.30;;;;;;4975192;28;20201;-68
2021/06/30 01:23:07;;;;;;;1.10;0.60;;;26.00;52.30;;;;;;4981261;28;20571;-68
2021/06/30 01:25:40;;;;;;;0.53;0.50;;;26.00;52.40;;;;;;4988893;28;20201;-68
2021/06/30 01:28:13;;;;;;;0.60;0.60;;;25.90;52.30;;;;;;4978806;28;20221;-68
2021/06/30 01:30:42;;;;;;;0.60;0.60;;;25.90;52.30;;;;;;4982235;28;20227;-68
2021/06/30 01:33:18;;;;;;;0.40;0.40;;;25.90;52.40;;;;;;4972755;28;20185;-68
2021/06/30 01:35:54;;;;;;;0.60;0.60;;;25.90;52.40;;;;;;4986997;28;20204;-68
2021/06/30 01:38:31;;;;;;;0.50;0.50;;;25.90;52.40;;;;;;4985727;28;20200;-68
2021/06/30 01:41:19;;;;;;;0.80;0.80;;;25.90;52.40;;;;;;4980275;28;20238;-68
2021/06/30 01:43:53;;;;;;;0.50;0.50;;;25.90;52.40;;;;;;4990005;28;20291;-68
2021/06/30 01:46:29;;;;;;;0.63;0.63;;;25.90;52.50;;;;;;4982107;28;20213;-68
2021/06/30 01:49:04;;;;;;;0.70;0.43;;;25.90;52.50;;;;;;4978930;28;20312;-68
2021/06/30 01:51:36;;;;;;;0.60;0.60;;;25.90;52.50;;;;;;4981980;28;20219;-68
2021/06/30 01:54:14;;;;;;;0.50;0.50;;;25.90;52.60;;;;;;5001051;28;20200;-68
2021/06/30 01:56:47;;;;;;;1.23;0.70;;;25.90;52.50;;;;;;4979664;28;20594;-68
2021/06/30 01:59:21;;;;;;;0.50;0.50;;;25.80;52.40;;;;;;4978629;28;20204;-67
2021/06/30 02:01:53;;;;;;;0.63;0.63;;;25.80;52.40;;;;;;4986195;28;20227;-66
2021/06/30 02:04:28;;;;;;;0.50;0.50;;;25.80;52.40;;;;;;4983753;28;20350;-68
2021/06/30 02:06:58;;;;;;;0.57;0.57;;;25.80;52.40;;;;;;4988647;28;20212;-67
2021/06/30 02:09:33;;;;;;;0.80;0.53;;;25.80;52.50;;;;;;4980820;28;20832;-67
2021/06/30 02:12:02;;;;;;;0.80;0.60;;;25.80;52.50;;;;;;4987348;28;20210;-67
2021/06/30 02:14:38;;;;;;;0.60;0.50;;;25.80;52.50;;;;;;4981059;28;20231;-67
2021/06/30 02:17:11;;;;;;;0.50;0.50;;;25.80;52.50;;;;;;4985070;28;20176;-67
2021/06/30 02:19:48;;;;;;;0.47;0.47;;;25.80;52.50;;;;;;4979801;28;20227;-67
2021/06/30 02:22:29;;;;;;;1.27;0.50;;;25.80;52.60;;;;;;4973751;28;20276;-67
2021/06/30 02:25:01;;;;;;;0.60;0.60;;;25.80;52.50;;;;;;4982685;28;20204;-67
2021/06/30 02:27:41;;;;;;;0.70;0.50;;;25.70;52.40;;;;;;4986281;28;20224;-68
2021/06/30 02:30:24;;;;;;;0.50;0.50;;;25.70;52.50;;;;;;4985368;28;20290;-68
2021/06/30 02:33:01;;;;;;;0.47;0.47;;;25.70;52.50;;;;;;4980681;28;20753;-68
2021/06/30 02:35:35;;;;;;;0.70;0.60;;;25.70;52.50;;;;;;4982639;28;20251;-69
2021/06/30 02:38:08;;;;;;;0.53;0.50;;;25.70;52.50;;;;;;4977373;28;20686;-69
2021/06/30 02:40:47;;;;;;;0.70;0.67;;;25.70;52.50;;;;;;4981835;28;20291;-68
2021/06/30 02:43:21;;;;;;;0.47;0.40;;;25.70;52.50;;;;;;4981662;28;20207;-69
2021/06/30 02:45:54;;;;;;;0.60;0.60;;;25.70;52.50;;;;;;4976010;28;20209;-68
2021/06/30 02:48:28;;;;;;;0.70;0.70;;;25.70;52.50;;;;;;4979570;28;20219;-69
2021/06/30 02:51:01;;;;;;;0.50;0.50;;;25.70;52.50;;;;;;4984609;28;20200;-68
2021/06/30 02:53:39;;;;;;;0.40;0.40;;;25.70;52.60;;;;;;4982369;28;20199;-68
2021/06/30 02:56:05;;;;;;;0.93;0.60;;;25.60;52.50;;;;;;4975457;28;20279;-70
2021/06/30 02:58:38;;;;;;;0.40;0.40;;;25.60;52.60;;;;;;4983073;28;20211;-68
2021/06/30 03:01:15;;;;;;;0.60;0.60;;;25.60;52.60;;;;;;4978592;28;20205;-68
2021/06/30 03:03:48;;;;;;;0.60;0.43;;;25.60;52.60;;;;;;4986062;28;20283;-68
2021/06/30 03:06:34;;;;;;;0.80;0.63;;;25.70;52.60;;;;;;4981424;28;20207;-68
2021/06/30 03:09:06;;;;;;;0.87;0.60;;;25.60;52.60;;;;;;4987519;28;20223;-69
2021/06/30 03:11:41;;;;;;;0.80;0.70;;;25.60;52.60;;;;;;4981983;28;20196;-68
2021/06/30 03:14:14;;;;;;;0.50;0.50;;;25.60;52.60;;;;;;4984179;28;20201;-68
2021/06/30 03:16:49;;;;;;;1.50;0.63;;;25.60;52.60;;;;;;4983611;28;20200;-68
2021/06/30 03:19:23;;;;;;;0.40;0.40;;;25.60;52.60;;;;;;4984283;28;20196;-68
2021/06/30 03:21:55;;;;;;;0.43;0.43;;;25.60;52.70;;;;;;4972188;28;20224;-68
2021/06/30 03:24:32;;;;;;;0.50;0.50;;;25.60;52.60;;;;;;4981107;28;20303;-68
2021/06/30 03:27:11;;;;;;;0.50;0.50;;;25.60;52.70;;;;;;4987985;28;20211;-69
2021/06/30 03:29:47;;;;;;;0.67;0.60;;;25.50;52.60;;;;;;4979402;28;20262;-68
2021/06/30 03:32:24;;;;;;;2.23;0.70;;;25.50;52.70;;;;;;4974153;28;20716;-68
2021/06/30 03:34:52;;;;;;;0.77;0.40;;;25.50;52.70;;;;;;4986212;28;20291;-68
2021/06/30 03:37:24;;;;;;;0.57;0.57;;;25.50;52.70;;;;;;4978362;28;20598;-68
2021/06/30 03:39:55;;;;;;;0.50;0.50;;;25.50;52.70;;;;;;4981189;28;20209;-68
2021/06/30 03:42:31;;;;;;;1.27;0.70;;;25.50;52.70;;;;;;4978096;28;20225;-68
2021/06/30 03:45:05;;;;;;;0.50;0.50;;;25.50;52.70;;;;;;4988864;28;20220;-68
2021/06/30 03:47:32;;;;;;;0.40;0.40;;;25.50;52.70;;;;;;4983398;28;20197;-69
2021/06/30 03:50:05;;;;;;;1.10;0.70;;;25.50;52.70;;;;;;4987688;28;20228;-68
2021/06/30 03:52:40;;;;;;;0.40;0.40;;;25.50;52.70;;;;;;4979823;28;20535;-68
2021/06/30 03:55:12;;;;;;;0.50;0.50;;;25.50;52.70;;;;;;4990800;28;20188;-67
2021/06/30 03:57:45;;;;;;;1.33;0.50;;;25.50;52.70;;;;;;4981803;28;20206;-66
2021/06/30 04:00:15;;;;;;;0.57;0.57;;;25.50;52.70;;;;;;4982176;28;20219;-68
2021/06/30 04:02:42;;;;;;;0.70;0.70;;;25.50;52.70;;;;;;4981242;28;20307;-68
2021/06/30 04:05:10;;;;;;;0.83;0.50;;;25.40;52.60;;;;;;4991215;28;20197;-68
2021/06/30 04:07:44;;;;;;;2.70;0.77;;;25.40;52.60;;;;;;4983046;28;20204;-69
2021/06/30 04:10:22;;;;;;;0.57;0.57;;;25.50;52.70;;;;;;4990333;28;20223;-67
2021/06/30 04:12:50;;;;;;;0.50;0.50;;;25.40;52.60;;;;;;4990154;28;20193;-67
2021/06/30 04:15:20;;;;;;;0.50;0.50;;;25.40;52.60;;;;;;4989607;28;20899;-67
2021/06/30 04:17:49;;;;;;;1.70;0.80;;;25.40;52.60;;;;;;4982182;28;20264;-66
2021/06/30 04:20:25;;;;;;;0.50;0.50;;;25.40;52.60;;;;;;4990062;28;20200;-66
2021/06/30 04:22:58;;;;;;;0.60;0.53;;;25.50;52.70;;;;;;4986622;28;20200;-66
2021/06/30 04:25:32;;;;;;;0.67;0.67;;;25.40;52.60;;;;;;4979666;28;20212;-70
2021/06/30 04:28:06;;;;;;;0.63;0.63;;;25.40;52.70;;;;;;4988099;28;20200;-70
2021/06/30 04:30:42;;;;;;;0.50;0.47;;;25.40;52.70;;;;;;4982963;28;20779;-68
2021/06/30 04:33:13;;;;;;;1.13;0.70;;;25.40;52.70;;;;;;4991133;28;20188;-68
2021/06/30 04:35:51;;;;;;;0.50;0.40;;;25.40;52.70;;;;;;4982599;28;20209;-65
2021/06/30 04:38:19;;;;;;;0.57;0.57;;;25.40;52.70;;;;;;4991163;28;20202;-66
2021/06/30 04:40:47;;;;;;;0.67;0.63;;;25.40;52.70;;;;;;4981949;28;20209;-66
2021/06/30 04:43:15;;;;;;;0.70;0.70;;;25.40;52.70;;;;;;4982314;28;20287;-67
2021/06/30 04:45:46;;;;;;;0.53;0.53;;;25.40;52.90;;;;;;4981002;28;20266;-65
2021/06/30 04:48:20;;;;;;;2.10;0.70;;;25.40;52.70;;;;;;4984895;28;20223;-66
2021/06/30 04:50:55;;;;;;;0.60;0.60;;;25.40;52.60;;;;;;4982054;28;20204;-68
2021/06/30 04:53:23;;;;;;;3.13;0.80;;;25.50;52.70;;;;;;4979579;28;20279;-67
2021/06/30 04:55:55;;;;;;;0.70;0.70;;;25.50;52.50;;;;;;4984098;28;20192;-68
2021/06/30 04:58:31;;;;;;;0.63;0.63;;;25.50;52.30;;;;;;4985315;28;20200;-69
2021/06/30 05:01:10;;;;;;;1.53;0.90;;;25.50;52.30;;;;;;4985402;28;20208;-67
2021/06/30 05:03:44;;;;;;;0.70;0.70;;;25.60;52.20;;;;;;4978107;28;20211;-67
2021/06/30 05:06:19;;;;;;;0.60;0.60;;;25.60;52.20;;;;;;4983841;28;20189;-67
2021/06/30 05:08:56;;;;;;;2.20;0.80;;;25.60;52.10;;;;;;4980272;28;20232;-68
2021/06/30 05:11:32;;;;;;;0.80;0.80;;;25.70;52.40;;;;;;4989367;28;20200;-66
2021/06/30 05:14:08;;;;;;;1.80;0.80;;;25.60;52.00;;;;;;4984527;28;20200;-67
2021/06/30 05:16:35;;;;;;;7.63;0.73;;;25.70;52.10;;;;;;4991438;28;20291;-67
2021/06/30 05:19:09;;;;;;;5.37;0.80;;;25.70;52.20;;;;;;4981872;28;20236;-68
2021/06/30 05:21:42;;;;;;;1.37;0.70;;;25.70;52.20;;;;;;4992090;28;20645;-66
2021/06/30 05:24:16;;;;;;;14.20;3.60;;;25.70;52.10;;;;;;4980172;28;20208;-66
2021/06/30 05:26:56;;;;;;;41.10;11.27;;;25.70;52.30;;;;;;4987860;28;20232;-64
2021/06/30 05:29:28;;;;;;;33.43;10.80;;;25.70;53.30;;;;;;4983771;28;20216;-65
2021/06/30 05:32:04;;;;;;;42.37;11.63;;;25.70;53.10;;;;;;4976391;28;20208;-65
2021/06/30 05:34:39;;;;;;;38.27;11.73;;;25.70;53.10;;;;;;4985375;28;20204;-65
2021/06/30 05:37:17;;;;;;;28.47;9.70;;;25.70;53.30;;;;;;4987483;28;20188;-65
2021/06/30 05:39:51;;;;;;;16.53;5.67;;;25.60;53.30;;;;;;4979267;28;20208;-65
2021/06/30 05:42:23;;;;;;;15.80;5.33;;;25.60;53.20;;;;;;4984054;28;20204;-65
2021/06/30 05:44:55;;;;;;;7.27;3.20;;;25.60;53.30;;;;;;4989859;28;20227;-65
2021/06/30 05:47:30;;;;;;;3.77;2.40;;;25.60;53.10;;;;;;4987049;28;20750;-65
2021/06/30 05:50:14;;;;;;;4.10;1.60;;;25.60;52.80;;;;;;4990662;28;20200;-65
2021/06/30 05:52:55;;;;;;;1.83;1.20;;;25.50;52.50;;;;;;4992752;28;20240;-65
2021/06/30 05:55:31;;;;;;;1.77;1.40;;;25.50;52.40;;;;;;4992419;28;20192;-65
2021/06/30 05:58:04;;;;;;;1.10;1.00;;;25.50;52.50;;;;;;4984762;28;20215;-65
2021/06/30 06:00:32;;;;;;;0.70;0.70;;;25.50;52.30;;;;;;4986531;28;20277;-65
2021/06/30 06:03:10;;;;;;;1.07;0.80;;;25.50;52.30;;;;;;4990417;28;20226;-65
2021/06/30 06:05:43;;;;;;;7.95;1.33;;;25.40;52.80;;;;;;4981502;28;20438;-66
2021/06/30 06:08:16;;;;;;;3.27;1.10;;;25.50;53.40;;;;;;4983598;28;20204;-68
2021/06/30 06:10:51;;;;;;;2.77;0.97;;;25.40;53.00;;;;;;4982488;28;20231;-68
2021/06/30 06:13:27;;;;;;;2.50;1.17;;;25.50;52.60;;;;;;4984580;28;20188;-68
2021/06/30 06:16:01;;;;;;;1.10;1.00;;;25.50;52.70;;;;;;4978507;28;20216;-68
2021/06/30 06:18:35;;;;;;;1.20;0.80;;;25.50;52.50;;;;;;4985785;28;20212;-67
2021/06/30 06:21:05;;;;;;;0.90;0.83;;;25.60;52.30;;;;;;4981803;28;20227;-68
2021/06/30 06:23:33;;;;;;;0.77;0.77;;;25.60;52.00;;;;;;4989243;28;20685;-67
2021/06/30 06:26:12;;;;;;;1.20;1.10;;;25.60;52.00;;;;;;4983332;28;20200;-70
2021/06/30 06:28:47;;;;;;;1.40;0.97;;;25.70;51.60;;;;;;4971998;28;20566;-68
2021/06/30 06:31:27;;;;;;;0.80;0.80;;;25.70;51.70;;;;;;4985411;28;20227;-67
2021/06/30 06:33:58;;;;;;;2.87;1.10;;;25.70;51.80;;;;;;4986508;28;20266;-69
2021/06/30 06:36:34;;;;;;;1.83;1.10;;;25.70;51.80;;;;;;4988405;28;20219;-68
2021/06/30 06:39:07;;;;;;;2.00;0.80;;;25.80;51.80;;;;;;4978318;28;20839;-67
2021/06/30 06:41:41;;;;;;;0.90;0.83;;;25.80;51.70;;;;;;4984743;28;20204;-68
2021/06/30 06:44:12;;;;;;;4.73;0.90;;;25.80;51.80;;;;;;4991893;28;20200;-67
2021/06/30 06:46:46;;;;;;;1.07;0.87;;;25.80;51.70;;;;;;4979322;28;20220;-69
2021/06/30 06:49:21;;;;;;;2.33;0.93;;;25.80;51.70;;;;;;4984381;28;20224;-70
2021/06/30 06:52:01;;;;;;;2.60;0.60;;;25.90;51.80;;;;;;4978981;28;20323;-70
2021/06/30 06:54:30;;;;;;;0.90;0.90;;;25.80;51.40;;;;;;4982396;28;20215;-67
2021/06/30 06:56:57;;;;;;;0.90;0.87;;;25.90;51.30;;;;;;4980377;28;20276;-67
2021/06/30 06:59:38;;;;;;;2.83;0.73;;;25.80;51.20;;;;;;4983065;28;20735;-66
2021/06/30 07:02:16;;;;;;;0.90;0.80;;;25.90;51.30;;;;;;4988676;28;20184;-67
2021/06/30 07:04:48;;;;;;;1.00;0.87;;;25.90;51.00;;;;;;4986373;28;20208;-67
2021/06/30 07:07:25;;;;;;;1.33;0.80;;;25.90;51.10;;;;;;4986388;28;20225;-68
2021/06/30 07:10:00;;;;;;;1.23;0.80;;;25.90;50.90;;;;;;4983439;28;20795;-66
2021/06/30 07:12:27;;;;;;;0.80;0.80;;;25.90;50.90;;;;;;4988925;28;20242;-69
2021/06/30 07:15:03;;;;;;;1.70;1.00;;;25.90;50.90;;;;;;4984523;28;20615;-67
2021/06/30 07:17:42;;;;;;;0.73;0.73;;;25.90;50.90;;;;;;4978243;28;20196;-68
2021/06/30 07:20:20;;;;;;;1.20;1.10;;;25.90;50.50;;;;;;4985488;28;20224;-67
2021/06/30 07:22:54;;;;;;;2.20;1.03;;;26.00;50.50;;;;;;4984360;28;20226;-65
2021/06/30 07:25:27;;;;;;;1.00;1.00;;;26.00;50.40;;;;;;4985733;28;20297;-66
2021/06/30 07:27:56;;;;;;;0.80;0.80;;;26.00;50.20;;;;;;4981778;28;20227;-66
2021/06/30 07:30:30;;;;;;;0.80;0.80;;;26.00;50.20;;;;;;4983252;28;20248;-66
2021/06/30 07:32:58;;;;;;;2.23;1.30;;;25.90;50.10;;;;;;4950160;28;20201;-67
2021/06/30 07:35:35;;;;;;;18.33;6.63;;;25.80;50.40;;;;;;4981514;28;20259;-65
2021/06/30 07:38:11;;;;;;;23.80;7.10;;;25.90;51.40;;;;;;4983748;28;20204;-68
2021/06/30 07:40:47;;;;;;;21.27;6.87;;;25.90;51.10;;;;;;4983288;28;20279;-66
2021/06/30 07:43:21;;;;;;;16.23;5.47;;;25.90;50.90;;;;;;4989640;28;20200;-66
2021/06/30 07:45:50;;;;;;;10.43;3.57;;;25.80;51.30;;;;;;4989252;28;20259;-68
2021/06/30 07:48:21;;;;;;;3.87;2.13;;;25.80;50.80;;;;;;4984811;28;20209;-67
2021/06/30 07:50:52;;;;;;;5.20;2.10;;;25.90;50.50;;;;;;4982881;28;20224;-67
2021/06/30 07:53:22;;;;;;;3.20;1.70;;;25.90;50.40;;;;;;4984520;28;20213;-67
2021/06/30 07:55:50;;;;;;;2.00;1.60;;;25.90;50.40;;;;;;4989572;28;20589;-68
2021/06/30 07:58:30;;;;;;;4.63;1.73;;;25.90;50.50;;;;;;4990114;28;20296;-67
2021/06/30 08:01:00;;;;;;;3.80;1.50;;;25.90;51.80;;;;;;4980998;28;20210;-66
2021/06/30 08:03:27;;;;;;;3.00;1.10;;;25.90;51.00;;;;;;4984619;28;20286;-65
2021/06/30 08:05:54;;;;;;;3.33;1.43;;;25.80;50.50;;;;;;4984299;28;20208;-65
2021/06/30 08:08:21;;;;;;;4.80;1.33;;;25.80;50.50;;;;;;4987001;28;20221;-69
2021/06/30 08:10:49;;;;;;;3.27;1.17;;;25.80;50.80;;;;;;4982842;28;20225;-69
2021/06/30 08:13:18;;;;;;;2.30;1.50;;;25.80;50.50;;;;;;4993547;28;20201;-68
2021/06/30 08:15:46;;;;;;;5.50;1.23;;;25.80;50.20;;;;;;4978552;28;20217;-69
2021/06/30 08:18:12;;;;;;;1.33;1.23;;;25.90;50.10;;;;;;4990681;28;20194;-71
2021/06/30 08:20:39;;;;;;;1.03;1.03;;;25.90;50.40;;;;;;4985944;28;20208;-69
2021/06/30 08:23:06;;;;;;;1.60;1.20;;;25.90;50.10;;;;;;4984988;28;20599;-70
2021/06/30 08:25:33;;;;;;;1.40;1.30;;;25.90;50.00;;;;;;4983991;28;20205;-70
2021/06/30 08:28:02;;;;;;;1.53;1.43;;;25.90;50.10;;;;;;4983499;28;20203;-69
2021/06/30 08:30:30;;;;;;;2.90;1.20;;;25.90;50.00;;;;;;4985070;28;20237;-68
2021/06/30 08:33:01;;;;;;;1.33;1.23;;;25.90;50.00;;;;;;4987215;28;20219;-65
2021/06/30 08:35:30;;;;;;;1.40;1.30;;;25.90;51.00;;;;;;4988809;28;20216;-66
2021/06/30 08:37:57;;;;;;;1.57;1.47;;;25.90;50.50;;;;;;4989505;28;20238;-66
2021/06/30 08:40:24;;;;;;;2.10;1.40;;;25.80;50.20;;;;;;4983111;28;20228;-65
2021/06/30 08:42:54;;;;;;;1.13;1.10;;;25.80;50.20;;;;;;4981621;28;20204;-64
2021/06/30 08:45:25;;;;;;;2.90;1.50;;;25.80;50.30;;;;;;4988033;28;20196;-64
2021/06/30 08:47:58;;;;;;;1.50;1.40;;;25.70;50.40;;;;;;4987452;28;20207;-65
2021/06/30 08:50:26;;;;;;;1.60;1.50;;;25.70;50.50;;;;;;4986258;28;20231;-67
2021/06/30 08:53:00;;;;;;;1.53;1.43;;;25.60;50.70;;;;;;4987621;28;20275;-67
2021/06/30 08:55:41;;;;;;;1.70;1.60;;;25.60;50.80;;;;;;4997195;28;20207;-65
2021/06/30 08:58:17;;;;;;;1.60;1.50;;;25.60;50.80;;;;;;4984606;28;20189;-64
2021/06/30 09:00:45;;;;;;;1.50;1.40;;;25.60;51.00;;;;;;4990003;28;20619;-63
2021/06/30 09:03:19;;;;;;;1.20;1.20;;;25.50;51.00;;;;;;4986530;28;20215;-64
2021/06/30 09:06:11;;;;;;;1.53;1.43;;;25.50;51.10;;;;;;4976489;28;20295;-67
2021/06/30 09:08:35;;;;;;;1.80;1.70;;;25.50;51.20;;;;;;4984566;28;20216;-67
2021/06/30 09:11:21;;;;;;;1.60;1.50;;;25.40;51.20;;;;;;4985110;28;20232;-67
2021/06/30 09:14:07;;;;;;;2.40;1.70;;;25.50;51.40;;;;;;4991395;28;20416;-68
2021/06/30 09:17:21;;;;;;;1.70;1.60;;;25.40;51.70;;;;;;4984983;28;20213;-68
2021/06/30 09:20:07;;;;;;;1.60;1.50;;;25.40;51.70;;;;;;5002927;28;20274;-70
2021/06/30 09:22:48;;;;;;;2.60;1.70;;;25.50;51.80;;;;;;4997498;28;20206;-71
2021/06/30 09:25:41;;;;;;;1.70;1.60;;;25.50;51.60;;;;;;4990953;28;20209;-67
2021/06/30 09:28:16;;;;;;;2.10;1.90;;;25.50;51.60;;;;;;4981112;28;20399;-66
2021/06/30 09:31:02;;;;;;;1.90;1.70;;;25.50;51.60;;;;;;4988888;28;20243;-66
2021/06/30 09:33:53;;;;;;;3.40;1.60;;;25.50;51.50;;;;;;4984941;28;20196;-68
2021/06/30 09:36:23;;;;;;;1.77;1.67;;;25.50;51.50;;;;;;4988667;28;20200;-68
2021/06/30 09:39:10;;;;;;;1.90;1.80;;;25.50;51.20;;;;;;4983551;28;20196;-70
2021/06/30 09:41:38;;;;;;;1.80;1.70;;;25.50;51.30;;;;;;4988124;28;20238;-70
2021/06/30 09:44:16;;;;;;;2.33;1.90;;;25.50;51.20;;;;;;4990217;28;20192;-68
2021/06/30 09:46:44;;;;;;;2.13;2.03;;;25.60;51.20;;;;;;4985012;28;20220;-71
2021/06/30 09:49:14;;;;;;;2.00;1.90;;;25.50;51.00;;;;;;4983848;28;20201;-70
2021/06/30 09:51:43;;;;;;;1.83;1.73;;;25.60;50.90;;;;;;4981237;28;20221;-68
2021/06/30 09:54:14;;;;;;;2.00;1.83;;;25.60;51.00;;;;;;4986841;28;20207;-68
2021/06/30 09:57:00;;;;;;;2.13;1.93;;;25.60;51.00;;;;;;4991175;28;20251;-66
2021/06/30 09:59:30;;;;;;;2.23;2.10;;;25.60;51.10;;;;;;4985848;28;20224;-69
2021/06/30 10:02:11;;;;;;;2.47;2.10;;;25.60;51.20;;;;;;4981652;28;20223;-67
2021/06/30 10:04:41;;;;;;;1.97;1.87;;;25.60;51.00;;;;;;4987662;28;20196;-68
2021/06/30 10:07:25;;;;;;;2.47;2.03;;;25.60;50.90;;;;;;4984663;28;20215;-66
2021/06/30 10:09:58;;;;;;;3.70;2.30;;;25.60;51.10;;;;;;4984976;28;20192;-70
2021/06/30 10:12:36;;;;;;;2.43;2.20;;;25.60;51.10;;;;;;4987179;28;20205;-66
2021/06/30 10:15:06;;;;;;;2.30;2.10;;;25.60;51.10;;;;;;4982135;28;20200;-65
2021/06/30 10:17:38;;;;;;;2.27;2.17;;;25.60;51.10;;;;;;4985630;28;20296;-66
2021/06/30 10:20:06;;;;;;;2.20;2.00;;;25.50;51.20;;;;;;4984513;28;20213;-65
2021/06/30 10:22:34;;;;;;;2.20;2.10;;;25.40;51.30;;;;;;4980108;28;20304;-64
2021/06/30 10:25:06;;;;;;;1.70;1.60;;;25.30;51.50;;;;;;4986780;28;20212;-65
2021/06/30 10:27:33;;;;;;;1.70;1.60;;;25.40;51.70;;;;;;4984037;28;20199;-66
2021/06/30 10:30:07;;;;;;;1.90;1.80;;;25.30;51.70;;;;;;4987017;28;20306;-66
2021/06/30 10:33:01;;;;;;;2.50;2.33;;;25.30;51.80;;;;;;4982098;28;20703;-66
2021/06/30 10:35:43;;;;;;;2.70;2.50;;;25.30;52.10;;;;;;4982903;28;20207;-64
2021/06/30 10:38:11;;;;;;;5.50;2.23;;;25.20;52.20;;;;;;4981200;28;20196;-64
2021/06/30 10:40:39;;;;;;;1.80;1.70;;;25.10;52.50;;;;;;4978107;28;20204;-65
2021/06/30 10:43:12;;;;;;;1.80;1.70;;;25.00;52.60;;;;;;4981218;28;20193;-66
2021/06/30 10:45:44;;;;;;;1.67;1.57;;;25.10;52.50;;;;;;4972534;28;20263;-64
2021/06/30 10:48:14;;;;;;;1.60;1.50;;;25.10;52.50;;;;;;4981388;28;20214;-64
2021/06/30 10:50:47;;;;;;;2.50;1.67;;;25.20;52.60;;;;;;4983459;28;20310;-67
2021/06/30 10:53:29;;;;;;;2.00;1.70;;;25.20;52.60;;;;;;4985878;28;20242;-67
2021/06/30 10:56:06;;;;;;;1.60;1.50;;;25.20;53.00;;;;;;4987365;28;20239;-70
2021/06/30 10:58:42;;;;;;;1.37;1.27;;;25.20;52.90;;;;;;4980744;28;20258;-68
2021/06/30 11:01:13;;;;;;;1.40;1.30;;;25.20;53.00;;;;;;4984758;28;20224;-66
2021/06/30 11:03:51;;;;;;;3.07;1.40;;;25.30;52.90;;;;;;4966379;28;20324;-68
2021/06/30 11:06:24;;;;;;;2.47;1.70;;;25.40;52.80;;;;;;4982817;28;20196;-67
2021/06/30 11:09:02;;;;;;;2.00;1.80;;;25.40;52.80;;;;;;4985393;28;20239;-66
2021/06/30 11:11:31;;;;;;;2.27;2.07;;;25.40;52.80;;;;;;4981249;28;20234;-65
2021/06/30 11:14:06;;;;;;;3.40;1.80;;;25.20;53.00;;;;;;4988635;28;20196;-65
2021/06/30 11:19:15;;;;;;;1.67;1.57;;;25.20;53.20;;;;;;4987791;28;20203;-65
2021/06/30 11:21:55;;;;;;;1.83;1.73;;;25.10;53.10;;;;;;4988201;28;20294;-65
2021/06/30 11:24:43;;;;;;;1.60;1.50;;;25.10;52.90;;;;;;4986285;28;20549;-65
2021/06/30 11:27:23;;;;;;;2.30;2.10;;;25.00;53.00;;;;;;4985727;28;20224;-67
2021/06/30 11:29:58;;;;;;;2.10;2.00;;;25.00;53.00;;;;;;4988942;28;20231;-67
2021/06/30 11:32:35;;;;;;;2.10;2.00;;;24.90;52.90;;;;;;4988287;28;20201;-67
2021/06/30 11:35:24;;;;;;;2.40;2.20;;;24.90;53.10;;;;;;4979603;28;20237;-67
2021/06/30 11:38:13;;;;;;;1.50;1.40;;;24.90;53.20;;;;;;4983441;28;20197;-67
2021/06/30 11:41:07;;;;;;;1.57;1.47;;;24.90;53.20;;;;;;4980505;28;20231;-66
2021/06/30 11:43:40;;;;;;;1.73;1.57;;;25.00;53.30;;;;;;4987704;28;20202;-66
2021/06/30 11:46:08;;;;;;;1.30;1.30;;;25.00;53.20;;;;;;4993038;28;20247;-67
2021/06/30 11:48:37;;;;;;;2.53;2.37;;;25.00;53.10;;;;;;4985021;28;20279;-65
2021/06/30 11:51:13;;;;;;;1.80;1.70;;;25.00;52.70;;;;;;4980480;28;20229;-65
2021/06/30 11:53:44;;;;;;;1.57;1.47;;;24.90;53.00;;;;;;4981015;28;20204;-65
2021/06/30 11:56:33;;;;;;;1.47;1.37;;;24.90;53.20;;;;;;5002056;28;20226;-65
2021/06/30 11:59:15;;;;;;;1.90;1.10;;;24.90;53.20;;;;;;4997925;28;20200;-65
2021/06/30 12:01:42;;;;;;;1.90;1.80;;;25.00;53.30;;;;;;4991805;28;20216;-66
2021/06/30 12:04:23;;;;;;;2.47;1.80;;;25.00;53.30;;;;;;4999780;28;20547;-66
2021/06/30 12:06:58;;;;;;;2.10;2.00;;;24.90;53.50;;;;;;4995241;28;20301;-66
2021/06/30 12:09:30;;;;;;;2.20;2.00;;;24.80;53.80;;;;;;4995614;28;20204;-66
2021/06/30 12:12:04;;;;;;;1.80;1.70;;;24.70;54.00;;;;;;4989857;28;20259;-65
2021/06/30 12:14:43;;;;;;;1.90;1.80;;;24.70;54.20;;;;;;4988576;28;20606;-66
2021/06/30 12:17:12;;;;;;;1.60;1.50;;;24.60;54.30;;;;;;4983636;28;20288;-66
2021/06/30 12:19:43;;;;;;;1.50;1.40;;;24.60;54.40;;;;;;4997162;28;20196;-67
2021/06/30 12:22:31;;;;;;;1.40;1.30;;;24.60;54.30;;;;;;4983038;28;20208;-66
2021/06/30 12:25:03;;;;;;;1.83;1.73;;;24.70;54.10;;;;;;4984177;28;20211;-66
2021/06/30 12:27:36;;;;;;;3.13;2.93;;;24.80;54.30;;;;;;4985895;28;20291;-66
2021/06/30 12:30:09;;;;;;;2.80;2.60;;;24.70;54.10;;;;;;4991680;28;20323;-66
2021/06/30 12:32:44;;;;;;;2.83;2.43;;;24.70;54.50;;;;;;4985164;28;20290;-65
2021/06/30 12:35:21;;;;;;;2.87;2.67;;;24.60;54.60;;;;;;5001737;28;20224;-65
2021/06/30 12:38:32;;;;;;;2.10;2.00;;;24.40;54.80;;;;;;4987959;28;20669;-66
2021/06/30 12:41:08;;;;;;;2.10;1.90;;;24.40;55.10;;;;;;4981822;28;20207;-64
2021/06/30 12:43:36;;;;;;;1.63;1.53;;;24.40;55.40;;;;;;4989014;28;20208;-64
2021/06/30 12:46:13;;;;;;;2.00;1.83;;;24.40;55.50;;;;;;4981217;28;20204;-64
2021/06/30 12:48:43;;;;;;;1.70;1.60;;;24.40;55.60;;;;;;4983851;28;20210;-65
2021/06/30 12:51:24;;;;;;;2.27;2.17;;;24.40;55.60;;;;;;4990874;28;20211;-66
2021/06/30 12:54:03;;;;;;;2.30;2.10;;;24.30;55.80;;;;;;4991911;28;20188;-66
2021/06/30 12:56:35;;;;;;;2.37;2.20;;;24.30;56.00;;;;;;4974057;28;20201;-66
2021/06/30 12:59:12;;;;;;;2.80;2.60;;;24.30;56.20;;;;;;4986370;28;20203;-66
2021/06/30 13:01:40;;;;;;;2.53;2.33;;;24.30;56.20;;;;;;4989810;28;20223;-68
2021/06/30 13:04:13;;;;;;;2.70;2.50;;;24.20;56.10;;;;;;4995468;28;20192;-68
2021/06/30 13:06:51;;;;;;;3.07;2.80;;;24.20;56.10;;;;;;4987482;28;20214;-67
2021/06/30 13:09:18;;;;;;;2.93;2.67;;;24.20;56.20;;;;;;4997909;28;20616;-67
2021/06/30 13:11:49;;;;;;;2.50;2.30;;;24.10;56.40;;;;;;4986863;28;20251;-67
2021/06/30 13:14:18;;;;;;;3.10;2.80;;;24.10;56.40;;;;;;4993368;28;20564;-66
2021/06/30 13:17:21;;;;;;;2.73;2.53;;;24.10;56.30;;;;;;4987099;28;20213;-66
2021/06/30 13:19:51;;;;;;;3.33;3.03;;;24.20;56.20;;;;;;4991431;28;20196;-67
2021/06/30 13:22:27;;;;;;;3.07;2.87;;;24.10;56.20;;;;;;4988961;28;20263;-68
2021/06/30 13:25:07;;;;;;;2.60;2.40;;;24.00;56.40;;;;;;4996868;28;20200;-68